Time;durP1;ratioP1;P1;durP2;ratioP2;P2;SDS_P1;SDS_P2;PMS_P1;PMS_P2;Temp;Humidity;BMP_temperature;BMP_pressure;BME280_temperature;BME280_humidity;BME280_pressure;Samples;Min_cycle;Max_cycle;Signal;HPM_P1;HPM_P2
2021/06/17 00:01:27;;;;;;;;;;;;;;;22.42;53.66;100981.41;5138221;27;19915;-40
2021/06/17 00:03:52;;;;;;;;;;;;;;;22.43;53.44;100983.00;5137768;27;19907;-40
2021/06/17 00:06:17;;;;;;;;;;;;;;;22.41;53.54;100990.78;5137993;27;20405;-40
2021/06/17 00:08:42;;;;;;;;;;;;;;;22.41;53.46;100989.97;5137334;27;20389;-41
2021/06/17 00:11:08;;;;;;;;;;;;;;;22.41;53.73;100989.97;5137572;27;20022;-41
2021/06/17 00:13:36;;;;;;;;;;;;;;;22.39;54.07;100979.25;5137589;27;19911;-40
2021/06/17 00:16:02;;;;;;;;;;;;;;;22.39;53.76;100986.69;5137262;27;19911;-41
2021/06/17 00:18:27;;;;;;;;;;;;;;;22.38;53.55;100979.56;5137977;27;19913;-41
2021/06/17 00:20:53;;;;;;;;;;;;;;;22.36;53.64;100982.63;5137698;27;20335;-41
2021/06/17 00:23:18;;;;;;;;;;;;;;;22.37;53.64;100984.25;5137626;27;20355;-41
2021/06/17 00:25:44;;;;;;;;;;;;;;;22.35;53.72;100981.81;5137627;27;19956;-41
2021/06/17 00:28:09;;;;;;;;;;;;;;;22.33;53.71;100985.97;5137567;27;19990;-41
2021/06/17 00:30:35;;;;;;;;;;;;;;;22.31;53.53;100980.78;5137535;27;20378;-40
2021/06/17 00:33:00;;;;;;;;;;;;;;;22.29;54.04;100985.78;5136728;27;20343;-41
2021/06/17 00:35:28;;;;;;;;;;;;;;;22.28;53.81;100980.56;5137101;27;19911;-41
2021/06/17 00:37:53;;;;;;;;;;;;;;;22.25;53.82;100971.00;5137813;27;20330;-41
2021/06/17 00:40:19;;;;;;;;;;;;;;;22.25;53.82;100962.75;5137629;27;19907;-41
2021/06/17 00:42:45;;;;;;;;;;;;;;;22.21;54.09;100964.47;5136712;27;20265;-40
2021/06/17 00:45:12;;;;;;;;;;;;;;;22.19;53.76;100947.41;5137298;27;19967;-40
2021/06/17 00:47:37;;;;;;;;;;;;;;;22.21;54.04;100947.13;5137092;27;19907;-40
2021/06/17 00:50:03;;;;;;;;;;;;;;;22.25;53.91;100959.16;5136892;27;20374;-40
2021/06/17 00:52:29;;;;;;;;;;;;;;;22.21;54.13;100947.94;5137339;27;19984;-40
2021/06/17 00:54:56;;;;;;;;;;;;;;;22.18;53.95;100950.50;5137327;27;20432;-40
2021/06/17 00:57:21;;;;;;;;;;;;;;;22.16;54.16;100952.75;5136674;27;19990;-40
2021/06/17 00:59:47;;;;;;;;;;;;;;;22.13;54.16;100956.91;5136306;27;19983;-41
2021/06/17 01:02:12;;;;;;;;;;;;;;;22.11;54.18;100953.66;5136182;27;19908;-40
2021/06/17 01:04:37;;;;;;;;;;;;;;;22.09;54.24;100947.59;5136994;27;19914;-40
2021/06/17 01:07:03;;;;;;;;;;;;;;;22.05;54.32;100949.31;5136488;27;19911;-40
2021/06/17 01:09:38;;;;;;;;;;;;;;;22.05;54.33;100949.31;5137306;27;20005;-41
2021/06/17 01:12:09;;;;;;;;;;;;;;;22.02;54.65;100950.75;5136963;27;20258;-40
2021/06/17 01:14:42;;;;;;;;;;;;;;;21.97;54.50;100942.59;5136420;27;20010;-40
2021/06/17 01:17:09;;;;;;;;;;;;;;;21.93;54.37;100938.81;5136583;27;19907;-40
2021/06/17 01:19:47;;;;;;;;;;;;;;;21.89;54.45;100953.50;5137129;27;20320;-40
2021/06/17 01:22:15;;;;;;;;;;;;;;;21.88;54.30;100957.38;5135836;27;19907;-40
2021/06/17 01:24:59;;;;;;;;;;;;;;;21.84;54.34;100955.22;5136149;27;19907;-40
2021/06/17 01:27:54;;;;;;;;;;;;;;;21.80;54.69;100959.69;5136173;27;20359;-40
2021/06/17 01:30:20;;;;;;;;;;;;;;;21.78;54.59;100966.66;5136136;27;19960;-40
2021/06/17 01:33:00;;;;;;;;;;;;;;;21.77;54.53;100959.50;5136182;27;20243;-40
2021/06/17 01:35:26;;;;;;;;;;;;;;;21.73;54.74;100963.97;5135945;27;20351;-40
2021/06/17 01:37:54;;;;;;;;;;;;;;;21.68;54.78;100962.13;5135908;27;20267;-40
2021/06/17 01:40:20;;;;;;;;;;;;;;;21.62;54.74;100963.34;5136235;27;19907;-40
2021/06/17 01:42:46;;;;;;;;;;;;;;;21.55;54.92;100957.41;5135779;27;20012;-41
2021/06/17 01:45:11;;;;;;;;;;;;;;;21.52;55.04;100964.34;5135805;27;19913;-41
2021/06/17 01:47:37;;;;;;;;;;;;;;;21.48;55.30;100960.56;5135796;27;19907;-40
2021/06/17 01:50:03;;;;;;;;;;;;;;;21.46;55.24;100957.28;5135994;27;19907;-40
2021/06/17 01:52:30;;;;;;;;;;;;;;;21.47;55.20;100949.84;5136401;27;20258;-40
2021/06/17 01:54:56;;;;;;;;;;;;;;;21.47;55.23;100955.34;5135561;27;19907;-40
2021/06/17 01:57:22;;;;;;;;;;;;;;;21.46;55.37;100948.22;5135340;27;20266;-40
2021/06/17 01:59:50;;;;;;;;;;;;;;;21.43;55.40;100940.59;5135480;27;19907;-40
2021/06/17 02:02:16;;;;;;;;;;;;;;;21.42;55.39;100949.94;5135399;27;19907;-40
2021/06/17 02:04:46;;;;;;;;;;;;;;;21.38;55.34;100946.16;5136291;27;19914;-40
2021/06/17 02:07:11;;;;;;;;;;;;;;;21.37;55.73;100955.50;5135913;27;19915;-40
2021/06/17 02:09:37;;;;;;;;;;;;;;;21.32;55.58;100957.22;5135713;27;19907;-40
2021/06/17 02:12:02;;;;;;;;;;;;;;;21.31;55.75;100944.59;5135355;27;19914;-40
2021/06/17 02:14:28;;;;;;;;;;;;;;;21.30;55.73;100948.47;5135791;27;19907;-40
2021/06/17 02:16:54;;;;;;;;;;;;;;;21.27;55.95;100940.78;5135528;27;20335;-40
2021/06/17 02:19:20;;;;;;;;;;;;;;;21.27;55.95;100940.78;5135176;27;20002;-40
2021/06/17 02:21:48;;;;;;;;;;;;;;;21.28;55.98;100936.94;5135444;27;19967;-40
2021/06/17 02:24:14;;;;;;;;;;;;;;;21.26;56.08;100935.59;5135372;27;19911;-40
2021/06/17 02:26:40;;;;;;;;;;;;;;;21.26;56.28;100928.16;5135153;27;20271;-40
2021/06/17 02:29:08;;;;;;;;;;;;;;;21.25;55.96;100926.53;5135560;27;19907;-40
2021/06/17 02:31:33;;;;;;;;;;;;;;;21.23;56.24;100927.97;5134709;27;19908;-40
2021/06/17 02:33:59;;;;;;;;;;;;;;;21.20;56.04;100926.63;5135163;27;19911;-40
2021/06/17 02:36:26;;;;;;;;;;;;;;;21.21;56.48;100930.19;5135496;27;19918;-40
2021/06/17 02:38:54;;;;;;;;;;;;;;;21.22;56.39;100926.31;5134866;27;19907;-40
2021/06/17 02:41:20;;;;;;;;;;;;;;;21.22;56.31;100920.81;5135087;27;19958;-40
2021/06/17 02:43:46;;;;;;;;;;;;;;;21.22;56.45;100915.31;5134531;27;20312;-40
2021/06/17 02:46:12;;;;;;;;;;;;;;;21.21;56.45;100927.44;5135447;27;19918;-40
2021/06/17 02:48:37;;;;;;;;;;;;;;;21.22;56.30;100916.13;5134882;28;19907;-40
2021/06/17 02:51:03;;;;;;;;;;;;;;;21.22;56.47;100912.56;5134811;28;20228;-40
2021/06/17 02:53:28;;;;;;;;;;;;;;;21.21;56.50;100909.00;5134477;27;19965;-40
2021/06/17 02:55:54;;;;;;;;;;;;;;;21.20;56.55;100907.38;5135166;27;19911;-40
2021/06/17 02:58:19;;;;;;;;;;;;;;;21.21;56.74;100914.50;5134761;27;19994;-40
2021/06/17 03:00:56;;;;;;;;;;;;;;;21.22;56.86;100910.63;5135348;28;19918;-40
2021/06/17 03:03:28;;;;;;;;;;;;;;;21.19;57.52;100908.50;5134839;27;19912;-40
2021/06/17 03:06:01;;;;;;;;;;;;;;;21.19;56.93;100902.16;5135000;27;19911;-40
2021/06/17 03:08:47;;;;;;;;;;;;;;;21.18;56.91;100906.88;5135023;27;19907;-40
2021/06/17 03:11:13;;;;;;;;;;;;;;;21.17;56.88;100907.94;5135311;27;19914;-40
2021/06/17 03:13:42;;;;;;;;;;;;;;;21.18;56.89;100911.50;5138201;27;19960;-40
2021/06/17 03:16:08;;;;;;;;;;;;;;;21.18;56.95;100912.34;5138742;27;20362;-40
2021/06/17 03:18:35;;;;;;;;;;;;;;;21.18;56.83;100908.75;5138287;27;19911;-40
2021/06/17 03:21:01;;;;;;;;;;;;;;;21.17;56.58;100898.88;5139396;27;19908;-40
2021/06/17 03:23:27;;;;;;;;;;;;;;;21.18;56.61;100901.38;5138521;27;20266;-40
2021/06/17 03:25:53;;;;;;;;;;;;;;;21.19;56.59;100904.91;5138826;27;19907;-40
2021/06/17 03:28:20;;;;;;;;;;;;;;;21.17;56.71;100905.19;5138411;27;19907;-40
2021/06/17 03:30:47;;;;;;;;;;;;;;;21.17;56.55;100902.44;5138722;27;19930;-40
2021/06/17 03:33:14;;;;;;;;;;;;;;;21.16;56.62;100902.75;5138445;27;19911;-40
2021/06/17 03:35:40;;;;;;;;;;;;;;;21.14;56.93;100897.56;5139110;27;19938;-40
2021/06/17 03:38:07;;;;;;;;;;;;;;;21.14;56.91;100896.75;5137124;27;20310;-40
2021/06/17 03:40:32;;;;;;;;;;;;;;;21.12;56.87;100899.78;5139099;27;19908;-40
2021/06/17 03:43:00;;;;;;;;;;;;;;;21.13;57.15;100903.34;5138064;27;19933;-40
2021/06/17 03:45:25;;;;;;;;;;;;;;;21.11;58.28;100898.16;5138677;27;19914;-40
2021/06/17 03:47:51;;;;;;;;;;;;;;;21.09;57.60;100897.66;5137727;27;19907;-40
2021/06/17 03:50:18;;;;;;;;;;;;;;;21.09;57.27;100900.41;5138812;27;19960;-40
2021/06/17 03:52:44;;;;;;;;;;;;;;;21.07;57.23;100903.44;5138740;27;19907;-40
2021/06/17 03:55:11;;;;;;;;;;;;;;;21.08;59.09;100912.50;5138751;27;20296;-40
2021/06/17 03:57:37;;;;;;;;;;;;;;;21.06;58.22;100901.00;5137898;27;19919;-40
2021/06/17 04:00:03;;;;;;;;;;;;;;;21.07;57.74;100910.88;5138743;27;19912;-40
2021/06/17 04:02:28;;;;;;;;;;;;;;;21.07;58.20;100902.63;5137904;27;19928;-40
2021/06/17 04:04:54;;;;;;;;;;;;;;;21.09;59.64;100909.47;5138718;27;20003;-40
2021/06/17 04:07:22;;;;;;;;;;;;;;;21.12;57.73;100905.28;5137956;27;19914;-40
2021/06/17 04:09:48;;;;;;;;;;;;;;;21.18;57.66;100911.50;5137714;27;20003;-40
2021/06/17 04:12:15;;;;;;;;;;;;;;;21.22;57.94;100912.56;5137620;27;20010;-40
2021/06/17 04:14:42;;;;;;;;;;;;;;;21.26;57.52;100917.16;5138446;27;19907;-40
2021/06/17 04:17:09;;;;;;;;;;;;;;;21.30;57.88;100906.38;5137608;27;19993;-40
2021/06/17 04:19:36;;;;;;;;;;;;;;;21.32;57.96;100904.97;5137829;27;19964;-40
2021/06/17 04:22:03;;;;;;;;;;;;;;;21.34;58.29;100904.69;5137661;27;20265;-40
2021/06/17 04:24:30;;;;;;;;;;;;;;;21.36;58.42;100902.44;5137077;27;19907;-40
2021/06/17 04:26:55;;;;;;;;;;;;;;;21.38;58.29;100907.66;5138214;27;19915;-40
2021/06/17 04:29:21;;;;;;;;;;;;;;;21.40;58.96;100908.16;5137286;27;19907;-40
2021/06/17 04:31:48;;;;;;;;;;;;;;;21.39;58.09;100909.28;5136999;27;19908;-40
2021/06/17 04:34:14;;;;;;;;;;;;;;;21.38;60.12;100908.47;5137906;27;19915;-40
2021/06/17 04:36:40;;;;;;;;;;;;;;;21.34;58.53;100918.44;5137144;27;19915;-40
2021/06/17 04:39:07;;;;;;;;;;;;;;;21.38;58.46;100918.66;5137618;27;19918;-40
2021/06/17 04:41:32;;;;;;;;;;;;;;;21.41;58.38;100918.03;5136996;27;19907;-40
2021/06/17 04:44:00;;;;;;;;;;;;;;;21.45;58.40;100914.38;5137508;27;19914;-40
2021/06/17 04:46:25;;;;;;;;;;;;;;;21.49;58.37;100920.09;5137301;27;19908;-40
2021/06/17 04:48:52;;;;;;;;;;;;;;;21.52;58.42;100922.25;5136878;27;20236;-40
2021/06/17 04:51:18;;;;;;;;;;;;;;;21.54;58.89;100911.75;5136880;27;19915;-40
2021/06/17 04:53:43;;;;;;;;;;;;;;;21.55;59.63;100925.22;5136558;27;19917;-40
2021/06/17 04:56:08;;;;;;;;;;;;;;;21.60;60.19;100916.84;5137323;27;19971;-40
2021/06/17 04:58:35;;;;;;;;;;;;;;;21.66;60.09;100914.81;5136669;27;19933;-40
2021/06/17 05:01:05;;;;;;;;;;;;;;;21.70;59.89;100913.09;5136640;27;19960;-40
2021/06/17 05:03:30;;;;;;;;;;;;;;;21.77;59.22;100915.47;5136593;27;19961;-40
2021/06/17 05:05:57;;;;;;;;;;;;;;;21.80;59.87;100907.41;5136841;27;19907;-40
2021/06/17 05:10:52;;;;;;;;;;;;;;;21.93;60.47;100921.50;5136599;27;19907;-40
2021/06/17 05:13:23;;;;;;;;;;;;;;;21.96;59.75;100918.09;5136711;27;19914;-40
2021/06/17 05:15:49;;;;;;;;;;;;;;;22.00;60.21;100910.88;5136423;27;19944;-40
2021/06/17 05:18:14;;;;;;;;;;;;;;;22.01;60.62;100909.75;5136024;27;19911;-40
2021/06/17 05:20:40;;;;;;;;;;;;;;;22.01;60.41;100918.00;5136004;27;20403;-40
2021/06/17 05:23:05;;;;;;;;;;;;;;;22.04;59.82;100920.97;5136687;27;19960;-40
2021/06/17 05:25:31;;;;;;;;;;;;;;;22.07;61.32;100914.06;5136152;27;20258;-40
2021/06/17 05:27:56;;;;;;;;;;;;;;;22.13;60.71;100920.31;5135823;27;19908;-40
2021/06/17 05:30:21;;;;;;;;;;;;;;;22.23;60.76;100917.34;5136906;27;20333;-40
2021/06/17 05:32:47;;;;;;;;;;;;;;;22.39;61.44;100915.88;5135538;27;19907;-40
2021/06/17 05:35:12;;;;;;;;;;;;;;;22.53;61.03;100915.84;5136324;27;19953;-40
2021/06/17 05:37:37;;;;;;;;;;;;;;;22.68;60.34;100918.25;5135914;27;19998;-40
2021/06/17 05:40:03;;;;;;;;;;;;;;;22.84;59.98;100925.06;5136789;27;20390;-40
2021/06/17 05:42:30;;;;;;;;;;;;;;;22.99;59.97;100928.63;5135775;27;19907;-40
2021/06/17 05:44:55;;;;;;;;;;;;;;;23.12;59.17;100922.22;5135813;27;19908;-40
2021/06/17 05:47:20;;;;;;;;;;;;;;;23.25;59.13;100932.38;5136585;27;19914;-40
2021/06/17 05:49:46;;;;;;;;;;;;;;;23.39;58.77;100938.66;5136108;27;19930;-40
2021/06/17 05:52:11;;;;;;;;;;;;;;;23.52;59.28;100936.09;5136231;27;19907;-40
2021/06/17 05:54:36;;;;;;;;;;;;;;;23.65;58.39;100940.78;5135916;27;19914;-40
2021/06/17 05:57:01;;;;;;;;;;;;;;;23.76;57.80;100942.13;5135760;27;19930;-40
2021/06/17 05:59:27;;;;;;;;;;;;;;;23.85;57.67;100929.16;5136031;27;19913;-40
2021/06/17 06:01:52;;;;;;;;;;;;;;;23.98;58.46;100946.78;5135642;27;19908;-40
2021/06/17 06:04:17;;;;;;;;;;;;;;;24.07;57.74;100941.31;5135705;27;19914;-40
2021/06/17 06:06:42;;;;;;;;;;;;;;;24.20;58.33;100940.34;5135720;27;20335;-40
2021/06/17 06:09:09;;;;;;;;;;;;;;;24.37;57.54;100945.97;5135629;27;20361;-40
2021/06/17 06:11:34;;;;;;;;;;;;;;;24.58;56.92;100934.28;5135359;27;19911;-40
2021/06/17 06:13:59;;;;;;;;;;;;;;;24.71;56.46;100933.34;5136115;27;19950;-40
2021/06/17 06:16:24;;;;;;;;;;;;;;;24.75;56.28;100939.03;5135278;27;19908;-40
2021/06/17 06:18:50;;;;;;;;;;;;;;;24.71;56.00;100940.81;5135218;27;19907;-40
2021/06/17 06:21:15;;;;;;;;;;;;;;;24.65;56.14;100942.94;5135134;27;19908;-40
2021/06/17 06:23:41;;;;;;;;;;;;;;;24.60;55.91;100948.63;5135110;27;19907;-40
2021/06/17 06:26:06;;;;;;;;;;;;;;;24.54;55.71;100945.16;5135679;27;20048;-40
2021/06/17 06:28:32;;;;;;;;;;;;;;;24.46;55.61;100940.47;5135022;27;19969;-40
2021/06/17 06:30:57;;;;;;;;;;;;;;;24.43;55.83;100946.63;5135666;27;19967;-40
2021/06/17 06:33:23;;;;;;;;;;;;;;;24.44;55.78;100941.91;5135228;27;20335;-40
2021/06/17 06:35:48;;;;;;;;;;;;;;;24.45;55.51;100946.28;5135284;27;20362;-40
2021/06/17 06:38:14;;;;;;;;;;;;;;;24.47;55.91;100946.81;5134957;27;20227;-40
2021/06/17 06:40:40;;;;;;;;;;;;;;;24.50;55.45;100949.75;5134673;27;20329;-40
2021/06/17 06:43:06;;;;;;;;;;;;;;;24.51;55.42;100964.38;5134831;27;19913;-40
2021/06/17 06:45:31;;;;;;;;;;;;;;;24.50;55.41;100965.50;5135500;27;19913;-40
2021/06/17 06:47:57;;;;;;;;;;;;;;;24.49;55.09;100967.44;5134118;27;20266;-40
2021/06/17 06:50:22;;;;;;;;;;;;;;;24.50;55.78;100973.78;5135681;27;19914;-40
2021/06/17 06:52:47;;;;;;;;;;;;;;;24.51;55.14;100979.00;5135327;27;19907;-40
2021/06/17 06:55:13;;;;;;;;;;;;;;;24.59;54.77;100977.38;5135124;27;19934;-40
2021/06/17 06:57:39;;;;;;;;;;;;;;;24.79;53.98;100985.09;5134457;27;19907;-46
2021/06/17 07:00:06;;;;;;;;;;;;;;;25.10;50.87;100984.16;5135120;27;19908;-40
2021/06/17 07:02:33;;;;;;;;;;;;;;;25.46;51.03;100988.50;5134422;27;20008;-40
2021/06/17 07:04:58;;;;;;;;;;;;;;;25.76;50.05;100987.50;5134478;27;19914;-40
2021/06/17 07:07:23;;;;;;;;;;;;;;;25.93;49.24;100992.19;5134639;28;19908;-40
2021/06/17 07:09:50;;;;;;;;;;;;;;;26.00;48.79;100995.25;5133749;28;19907;-40
2021/06/17 07:12:15;;;;;;;;;;;;;;;26.06;48.46;100977.31;5134753;27;20001;-40
2021/06/17 07:14:40;;;;;;;;;;;;;;;26.20;47.57;100985.38;5134463;28;19943;-41
2021/06/17 07:17:05;;;;;;;;;;;;;;;26.26;47.97;100986.03;5134671;28;19907;-40
2021/06/17 07:19:30;;;;;;;;;;;;;;;26.28;48.30;100983.72;5134973;28;19914;-40
2021/06/17 07:21:58;;;;;;;;;;;;;;;26.33;48.03;100980.78;5134507;28;19907;-40
2021/06/17 07:24:23;;;;;;;;;;;;;;;26.40;47.91;100970.78;5134570;27;19917;-40
2021/06/17 07:26:51;;;;;;;;;;;;;;;26.43;47.92;100986.78;5134547;28;19961;-40
2021/06/17 07:29:16;;;;;;;;;;;;;;;26.48;47.77;100984.97;5134534;27;19994;-40
2021/06/17 07:31:42;;;;;;;;;;;;;;;26.52;47.69;100977.59;5134848;28;20307;-40
2021/06/17 07:34:09;;;;;;;;;;;;;;;26.58;47.38;100987.34;5134621;28;19912;-40
2021/06/17 07:36:36;;;;;;;;;;;;;;;26.59;47.89;100992.53;5134766;27;19998;-40
2021/06/17 07:39:01;;;;;;;;;;;;;;;26.67;48.28;101001.97;5134450;27;19918;-40
2021/06/17 07:41:27;;;;;;;;;;;;;;;26.74;47.88;101006.97;5134691;27;20309;-40
2021/06/17 07:43:52;;;;;;;;;;;;;;;26.79;47.47;101007.63;5134693;27;20248;-41
2021/06/17 07:46:18;;;;;;;;;;;;;;;26.83;47.27;101000.22;5134967;28;19914;-41
2021/06/17 07:48:44;;;;;;;;;;;;;;;26.84;47.14;100990.78;5134080;28;20368;-40
2021/06/17 07:51:10;;;;;;;;;;;;;;;26.87;47.70;101000.38;5134385;27;19907;-40
2021/06/17 07:53:35;;;;;;;;;;;;;;;26.88;47.51;101000.03;5134284;27;19914;-40
2021/06/17 07:56:01;;;;;;;;;;;;;;;26.92;47.93;100991.84;5134642;27;19911;-40
2021/06/17 07:58:26;;;;;;;;;;;;;;;26.97;47.44;100986.09;5135371;27;20296;-40
2021/06/17 08:00:51;;;;;;;;;;;;;;;27.05;47.82;100979.66;5137730;27;19913;-41
2021/06/17 08:03:17;;;;;;;;;;;;;;;27.15;47.40;100970.16;5137768;27;19907;-40
2021/06/17 08:05:42;;;;;;;;;;;;;;;27.20;47.38;100978.25;5138484;27;19915;-40
2021/06/17 08:08:07;;;;;;;;;;;;;;;27.23;47.63;100972.00;5137457;27;20318;-41
2021/06/17 08:10:33;;;;;;;;;;;;;;;27.29;47.59;100972.63;5137788;27;19967;-41
2021/06/17 08:12:58;;;;;;;;;;;;;;;27.37;47.52;100964.19;5137751;27;19907;-41
2021/06/17 08:15:23;;;;;;;;;;;;;;;27.45;46.87;100960.53;5138502;27;19911;-40
2021/06/17 08:17:49;;;;;;;;;;;;;;;27.52;46.96;100959.16;5137629;27;19915;-40
2021/06/17 08:20:14;;;;;;;;;;;;;;;27.58;46.66;100963.38;5137581;27;19908;-41
2021/06/17 08:22:40;;;;;;;;;;;;;;;27.66;46.81;100959.66;5137456;27;19907;-40
2021/06/17 08:25:06;;;;;;;;;;;;;;;27.70;47.13;100960.59;5138087;27;19907;-41
2021/06/17 08:27:32;;;;;;;;;;;;;;;27.82;47.21;100948.75;5138209;27;19914;-40
2021/06/17 08:29:57;;;;;;;;;;;;;;;27.87;46.47;100951.31;5137407;27;19908;-40
2021/06/17 08:32:22;;;;;;;;;;;;;;;27.96;46.24;100943.63;5137304;27;20015;-40
2021/06/17 08:34:47;;;;;;;;;;;;;;;28.07;46.17;100932.91;5137908;27;19911;-40
2021/06/17 08:37:13;;;;;;;;;;;;;;;28.16;46.02;100925.25;5137748;27;20304;-41
2021/06/17 08:39:38;;;;;;;;;;;;;;;28.28;45.39;100918.88;5137744;27;20017;-41
2021/06/17 08:42:04;;;;;;;;;;;;;;;28.21;45.43;100925.84;5136755;27;19919;-41
2021/06/17 08:44:30;;;;;;;;;;;;;;;28.34;45.28;100912.75;5137197;27;19907;-41
2021/06/17 08:46:56;;;;;;;;;;;;;;;28.51;44.84;100906.13;5137889;27;19952;-41
2021/06/17 08:49:24;;;;;;;;;;;;;;;28.65;44.70;100906.56;5137319;27;20001;-41
2021/06/17 08:51:49;;;;;;;;;;;;;;;28.66;44.95;100912.94;5137621;27;19908;-40
2021/06/17 08:54:19;;;;;;;;;;;;;;;28.75;44.18;100913.59;5137165;27;20267;-41
2021/06/17 08:56:45;;;;;;;;;;;;;;;28.85;43.34;100912.28;5137776;27;19943;-41
2021/06/17 08:59:10;;;;;;;;;;;;;;;28.92;44.76;100909.69;5136563;27;19907;-41
2021/06/17 09:01:37;;;;;;;;;;;;;;;29.05;44.87;100896.59;5136448;27;19911;-41
2021/06/17 09:04:17;;;;;;;;;;;;;;;29.14;44.30;100889.69;5136412;27;19915;-41
2021/06/17 09:06:57;;;;;;;;;;;;;;;29.23;44.60;100884.78;5137296;27;19962;-41
2021/06/17 09:09:29;;;;;;;;;;;;;;;29.28;44.41;100880.09;5136716;27;19907;-41
2021/06/17 09:11:55;;;;;;;;;;;;;;;29.44;44.58;100867.00;5136792;27;19911;-40
2021/06/17 09:14:21;;;;;;;;;;;;;;;29.39;43.27;100870.88;5136769;27;19945;-41
2021/06/17 09:17:15;;;;;;;;;;;;;;;29.42;43.12;100881.28;5136751;27;19908;-41
2021/06/17 09:19:42;;;;;;;;;;;;;;;29.58;43.81;100908.38;5073047;28;19991;-41
2021/06/17 09:22:08;;;;;;;;;;;;;;;29.46;42.62;100901.69;5073068;28;19998;-41
2021/06/17 09:24:35;;;;;;;;;;;;;;;29.29;41.92;100893.69;5072792;28;19924;-41
2021/06/17 09:27:22;;;;;;;;;;;;;;;29.28;42.99;100882.88;5073559;28;20027;-41
2021/06/17 09:29:48;;;;;;;;;;;;;;;29.21;43.53;100886.28;5072655;28;20310;-41
2021/06/17 09:32:19;;;;;;;;;;;;;;;29.09;43.14;100894.72;5072865;28;19912;-40
2021/06/17 09:34:45;;;;;;;;;;;;;;;29.14;44.06;100897.25;5072670;28;20046;-41
2021/06/17 09:37:26;;;;;;;;;;;;;;;29.29;44.22;100907.59;5072643;28;20290;-41
2021/06/17 09:39:51;;;;;;;;;;;;;;;29.45;43.77;100899.25;5072784;28;19977;-41
2021/06/17 09:42:16;;;;;;;;;;;;;;;29.48;43.98;100913.28;5072310;28;20392;-41
2021/06/17 09:44:41;;;;;;;;;;;;;;;29.53;43.20;100911.41;5073260;28;20317;-41
2021/06/17 09:47:15;;;;;;;;;;;;;;;29.55;43.64;100915.47;5072261;28;19909;-41
2021/06/17 09:49:42;;;;;;;;;;;;;;;29.53;43.96;100916.97;5073119;28;20377;-41
2021/06/17 09:52:08;;;;;;;;;;;;;;;29.45;43.24;100911.22;5072179;28;19908;-40
2021/06/17 09:54:36;;;;;;;;;;;;;;;29.41;44.33;100915.88;5072154;28;19912;-41
2021/06/17 09:57:03;;;;;;;;;;;;;;;29.37;43.83;100920.53;5129304;27;19933;-41
2021/06/17 09:59:35;;;;;;;;;;;;;;;29.33;43.30;100924.38;5136181;27;19911;-41
2021/06/17 10:02:00;;;;;;;;;;;;;;;29.28;43.33;100927.44;5136068;27;19952;-41
2021/06/17 10:04:27;;;;;;;;;;;;;;;29.28;43.77;100925.44;5135895;27;19911;-41
2021/06/17 10:06:52;;;;;;;;;;;;;;;29.32;43.91;100919.97;5136417;27;20005;-41
2021/06/17 10:09:17;;;;;;;;;;;;;;;29.44;43.34;100937.44;5135402;27;19951;-41
2021/06/17 10:11:43;;;;;;;;;;;;;;;29.56;43.31;100947.72;5135991;27;19911;-41
2021/06/17 10:14:09;;;;;;;;;;;;;;;29.63;42.97;100956.28;5135645;27;19998;-42
2021/06/17 10:16:35;;;;;;;;;;;;;;;29.63;43.46;100953.50;5135419;27;19916;-41
2021/06/17 10:19:01;;;;;;;;;;;;;;;29.67;43.41;100948.00;5135278;27;19915;-41
2021/06/17 10:21:26;;;;;;;;;;;;;;;29.72;43.08;100959.72;5134852;27;19960;-41
2021/06/17 10:23:52;;;;;;;;;;;;;;;29.79;42.91;100955.50;5135266;27;20295;-41
2021/06/17 10:26:22;;;;;;;;;;;;;;;29.85;42.29;100957.66;5135237;27;19907;-41
2021/06/17 10:28:52;;;;;;;;;;;;;;;29.92;43.30;100959.81;5135115;27;20263;-41
2021/06/17 10:31:42;;;;;;;;;;;;;;;29.98;43.23;100961.97;5135732;27;19998;-41
2021/06/17 10:34:22;;;;;;;;;;;;;;;30.20;41.98;100960.53;5071651;28;19912;-41
2021/06/17 10:37:13;;;;;;;;;;;;;;;30.32;41.82;100970.78;5072411;28;19912;-41
2021/06/17 10:39:38;;;;;;;;;;;;;;;30.36;41.54;100956.94;5068794;28;20008;-41
2021/06/17 10:42:04;;;;;;;;;;;;;;;30.37;42.14;100967.72;5071566;28;20003;-41
2021/06/17 10:44:41;;;;;;;;;;;;;;;30.39;42.11;100970.94;5072045;28;19908;-41
2021/06/17 10:47:07;;;;;;;;;;;;;;;30.49;42.60;100969.59;5072128;28;20006;-41
2021/06/17 10:49:50;;;;;;;;;;;;;;;30.45;41.07;100975.09;5071447;28;20011;-41
2021/06/17 10:52:25;;;;;;;;;;;;;;;30.49;42.45;100978.75;5071724;28;20400;-41
2021/06/17 10:54:58;;;;;;;;;;;;;;;30.67;42.13;100975.59;5071713;28;19932;-41
2021/06/17 10:57:42;;;;;;;;;;;;;;;30.86;42.28;100978.44;5071388;28;20008;-41
2021/06/17 11:00:23;;;;;;;;;;;;;;;31.17;41.52;100974.69;5071397;28;20493;-41
2021/06/17 11:02:52;;;;;;;;;;;;;;;31.50;40.16;100976.16;5071894;28;19908;-41
2021/06/17 11:05:33;;;;;;;;;;;;;;;31.65;39.34;100968.84;5071525;28;19909;-41
2021/06/17 11:08:17;;;;;;;;;;;;;;;31.78;38.55;100965.50;5071364;28;19938;-41
2021/06/17 11:10:43;;;;;;;;;;;;;;;32.04;37.08;100970.38;5092158;28;20339;-41
2021/06/17 11:13:08;;;;;;;;;;;;;;;32.22;37.85;100976.25;5135021;27;19998;-41
2021/06/17 11:15:34;;;;;;;;;;;;;;;32.19;35.09;100973.41;5134999;27;19918;-41
2021/06/17 11:17:59;;;;;;;;;;;;;;;32.10;36.42;100975.66;5134947;27;19914;-41
2021/06/17 11:20:33;;;;;;;;;;;;;;;32.11;36.62;100980.06;5135537;27;19952;-41
2021/06/17 11:22:59;;;;;;;;;;;;;;;32.17;36.81;100972.97;5135215;27;20013;-41
2021/06/17 11:25:26;;;;;;;;;;;;;;;32.30;35.92;100982.75;5134604;27;19907;-41
2021/06/17 11:27:58;;;;;;;;;;;;;;;32.44;35.65;100982.22;5135167;27;20316;-41
2021/06/17 11:30:42;;;;;;;;;;;;;;;32.50;34.12;100981.53;5134235;28;20254;-41
2021/06/17 11:33:19;;;;;;;;;;;;;;;32.63;34.63;100981.28;5135890;27;19915;-39
2021/06/17 11:35:48;;;;;;;;;;;;;;;32.78;34.42;100980.31;5139036;27;19939;-39
2021/06/17 11:38:20;;;;;;;;;;;;;;;32.87;33.35;100980.03;5137101;27;20108;-39
2021/06/17 11:40:46;;;;;;;;;;;;;;;32.97;33.42;100983.00;5139252;27;19907;-39
2021/06/17 11:43:11;;;;;;;;;;;;;;;33.00;33.12;101001.03;5137955;27;20365;-39
2021/06/17 11:45:37;;;;;;;;;;;;;;;32.76;32.42;101000.28;5138754;27;19907;-39
2021/06/17 11:48:06;;;;;;;;;;;;;;;32.68;33.94;101006.97;5138208;27;19994;-39
2021/06/17 11:50:31;;;;;;;;;;;;;;;32.65;33.24;101015.31;5138524;27;19907;-39
2021/06/17 11:52:57;;;;;;;;;;;;;;;32.46;33.06;101022.66;5138097;27;19986;-39
2021/06/17 11:55:23;;;;;;;;;;;;;;;32.21;33.49;101024.19;5138123;27;19908;-39
2021/06/17 11:57:49;;;;;;;;;;;;;;;32.09;33.45;101016.78;5138275;27;19908;-41
2021/06/17 12:00:31;;;;;;;;;;;;;;;32.17;34.35;101017.75;5138012;27;19914;-39
2021/06/17 12:02:56;;;;;;;;;;;;;;;32.32;34.55;101013.19;5137860;27;19907;-40
2021/06/17 12:05:22;;;;;;;;;;;;;;;32.49;33.63;101007.06;5137875;27;20365;-40
2021/06/17 12:07:48;;;;;;;;;;;;;;;32.57;33.41;101019.19;5137815;27;19914;-41
2021/06/17 12:10:13;;;;;;;;;;;;;;;32.68;34.10;101015.38;5138310;27;19911;-40
2021/06/17 12:12:43;;;;;;;;;;;;;;;32.72;33.19;101012.63;5138263;27;19911;-40
2021/06/17 12:15:09;;;;;;;;;;;;;;;32.85;34.02;101013.22;5137953;27;19907;-40
2021/06/17 12:17:35;;;;;;;;;;;;;;;33.07;34.54;101015.13;5137659;27;20366;-40
2021/06/17 12:20:11;;;;;;;;;;;;;;;33.20;33.30;101030.50;5138209;27;20355;-40
2021/06/17 12:22:38;;;;;;;;;;;;;;;33.20;33.69;101019.31;5137746;27;20278;-40
2021/06/17 12:25:03;;;;;;;;;;;;;;;33.23;34.42;101023.31;5137822;27;19907;-40
2021/06/17 12:27:28;;;;;;;;;;;;;;;33.32;34.05;101026.66;5138481;27;20006;-40
2021/06/17 12:29:54;;;;;;;;;;;;;;;33.44;33.31;101023.63;5137451;27;19992;-40
2021/06/17 12:32:33;;;;;;;;;;;;;;;33.18;33.74;101030.06;5137637;27;19915;-40
2021/06/17 12:35:08;;;;;;;;;;;;;;;33.05;34.13;101029.53;5137900;27;19963;-40
2021/06/17 12:37:49;;;;;;;;;;;;;;;33.16;34.35;101017.66;5136906;27;19918;-41
2021/06/17 12:40:25;;;;;;;;;;;;;;;33.25;34.02;101021.78;5137789;27;20005;-40